Time;durP1;ratioP1;P1;durP2;ratioP2;P2;SDS_P1;SDS_P2;PMS_P1;PMS_P2;Temp;Humidity;BMP_temperature;BMP_pressure;BME280_temperature;BME280_humidity;BME280_pressure;Samples;Min_cycle;Max_cycle;Signal;HPM_P1;HPM_P2
2023/08/06 00:00:20;;;;;;;5.60;5.20;;;;;;;14.79;100.00;100497.47;6280559;22;20017;-75
2023/08/06 00:02:46;;;;;;;5.78;5.25;;;;;;;14.79;100.00;100494.78;6280552;22;20079;-75
2023/08/06 00:05:13;;;;;;;6.70;5.60;;;;;;;14.78;100.00;100492.56;6281293;22;20020;-76
2023/08/06 00:07:40;;;;;;;6.50;5.07;;;;;;;14.75;100.00;100488.91;6280425;22;20040;-75
2023/08/06 00:10:07;;;;;;;5.90;5.40;;;;;;;14.75;100.00;100493.50;6281284;22;20012;-75
2023/08/06 00:12:33;;;;;;;6.18;5.68;;;;;;;14.74;100.00;100494.72;6280545;22;20055;-75
2023/08/06 00:15:00;;;;;;;7.80;6.20;;;;;;;14.73;100.00;100485.94;6281169;22;20062;-75
2023/08/06 00:17:26;;;;;;;5.32;4.93;;;;;;;14.74;100.00;100486.69;6279700;22;20095;-75
2023/08/06 00:19:53;;;;;;;8.30;5.63;;;;;;;14.74;100.00;100492.03;6281201;22;20460;-75
2023/08/06 00:22:19;;;;;;;5.60;5.13;;;;;;;14.72;100.00;100489.09;6253521;22;20322;-75
2023/08/06 00:24:46;;;;;;;9.45;5.97;;;;;;;14.72;100.00;100489.84;6280973;22;20013;-75
2023/08/06 00:27:12;;;;;;;5.60;5.20;;;;;;;14.73;100.00;100485.22;6281143;22;20027;-75
2023/08/06 00:29:39;;;;;;;5.55;5.07;;;;;;;14.72;100.00;100489.84;6252877;22;20504;-75
2023/08/06 00:32:06;;;;;;;5.75;5.15;;;;;;;14.73;100.00;100493.25;6253138;22;20020;-75
2023/08/06 00:34:32;;;;;;;5.53;5.13;;;;;;;14.74;100.00;100490.09;6280009;22;20020;-75
2023/08/06 00:36:59;;;;;;;5.57;5.03;;;;;;;14.72;100.00;100487.16;6281155;22;20023;-75
2023/08/06 00:39:25;;;;;;;6.35;5.85;;;;;;;14.70;100.00;100481.53;6280464;22;20039;-75
2023/08/06 00:41:52;;;;;;;8.65;5.32;;;;;;;14.69;100.00;100485.41;6253513;22;20051;-75
2023/08/06 00:44:19;;;;;;;5.65;5.07;;;;;;;14.72;100.00;100481.06;6280158;22;20104;-75
2023/08/06 00:46:46;;;;;;;5.72;5.32;;;;;;;14.70;100.00;100480.81;6253499;22;20442;-75
2023/08/06 00:49:12;;;;;;;6.50;5.75;;;;;;;14.71;100.00;100487.63;6280895;22;20439;-75
2023/08/06 00:51:39;;;;;;;6.57;5.93;;;;;;;14.68;100.00;100487.38;6252202;22;20450;-75
2023/08/06 00:54:05;;;;;;;6.20;5.60;;;;;;;14.69;100.00;100488.09;6253655;22;20024;-75
2023/08/06 00:56:35;;;;;;;6.93;6.32;;;;;;;14.67;100.00;100490.53;6252766;22;20016;-75
2023/08/06 00:59:04;;;;;;;6.10;5.50;;;;;;;14.67;100.00;100480.53;6280887;22;20016;-75
2023/08/06 01:01:31;;;;;;;10.00;5.70;;;;;;;14.68;100.00;100484.69;6279727;22;20472;-75
2023/08/06 01:03:58;;;;;;;5.97;5.47;;;;;;;14.68;100.00;100482.00;6281013;22;20465;-74
2023/08/06 01:06:40;;;;;;;6.20;5.68;;;;;;;14.70;100.00;100486.16;6280463;22;20024;-74
2023/08/06 01:09:31;;;;;;;5.95;5.55;;;;;;;14.70;100.00;100481.53;6281264;22;20019;-73
2023/08/06 01:12:13;;;;;;;9.80;5.88;;;;;;;14.71;100.00;100483.00;6253488;22;20020;-73
2023/08/06 01:14:52;;;;;;;6.45;5.95;;;;;;;14.70;100.00;100476.19;6279292;22;20051;-76
2023/08/06 01:17:19;;;;;;;6.05;5.47;;;;;;;14.70;100.00;100478.84;6280315;22;20016;-73
2023/08/06 01:19:46;;;;;;;6.65;5.38;;;;;;;14.71;100.00;100477.66;6253345;22;20024;-73
2023/08/06 01:22:12;;;;;;;6.40;5.90;;;;;;;14.73;100.00;100474.50;6280908;22;20477;-74
2023/08/06 01:24:44;;;;;;;6.13;5.63;;;;;;;14.73;100.00;100472.56;6252897;22;20446;-74
2023/08/06 01:27:14;;;;;;;;;;;;;;;14.76;100.00;100476.97;6281344;22;20027;-74
2023/08/06 01:30:04;;;;;;;6.75;5.88;;;;;;;14.75;100.00;100477.44;6279467;22;19926;-75
2023/08/06 01:32:35;;;;;;;6.93;6.25;;;;;;;14.74;100.00;100476.69;6280175;22;20508;-75
2023/08/06 01:35:03;;;;;;;6.57;6.07;;;;;;;14.73;100.00;100483.28;6253092;22;20050;-75
2023/08/06 01:37:31;;;;;;;7.20;6.50;;;;;;;14.72;100.00;100483.75;6280089;22;20016;-75
2023/08/06 01:39:57;;;;;;;6.95;6.28;;;;;;;14.72;100.00;100481.06;6280570;22;20012;-75
2023/08/06 01:42:24;;;;;;;7.40;6.25;;;;;;;14.69;100.00;100480.06;6252564;22;20050;-75
2023/08/06 01:44:50;;;;;;;6.65;6.00;;;;;;;14.67;100.00;100482.47;6280137;22;20481;-75
2023/08/06 01:47:17;;;;;;;6.75;6.18;;;;;;;14.66;100.00;100484.44;6280507;22;20017;-75
2023/08/06 01:49:44;;;;;;;7.45;6.20;;;;;;;14.64;100.00;100478.06;6253566;22;20079;-75
2023/08/06 01:52:10;;;;;;;10.75;6.22;;;;;;;14.62;100.00;100478.53;6280493;22;20016;-75
2023/08/06 01:54:37;;;;;;;9.15;7.03;;;;;;;14.63;100.00;100481.94;6252293;22;20952;-75
2023/08/06 01:57:04;;;;;;;7.18;6.50;;;;;;;14.63;100.00;100482.69;6280724;22;20040;-75
2023/08/06 01:59:31;;;;;;;7.18;6.47;;;;;;;14.62;100.00;100483.16;6279206;22;20016;-75
2023/08/06 02:01:57;;;;;;;8.73;7.13;;;;;;;14.61;100.00;100485.09;6280534;22;20013;-75
2023/08/06 02:04:24;;;;;;;11.07;6.75;;;;;;;14.61;100.00;100487.78;6251182;22;20042;-75
2023/08/06 02:06:51;;;;;;;7.35;6.57;;;;;;;14.61;100.00;100485.09;6253342;22;20051;-75
2023/08/06 02:09:18;;;;;;;7.68;6.97;;;;;;;14.62;100.00;100480.47;6253112;22;20466;-75
2023/08/06 02:11:45;;;;;;;9.27;7.32;;;;;;;14.60;100.00;100483.63;6228152;22;20016;-74
2023/08/06 02:14:11;;;;;;;11.32;7.18;;;;;;;14.61;100.00;100489.72;6252580;22;20068;-75
2023/08/06 02:16:38;;;;;;;7.65;6.93;;;;;;;14.62;100.00;100491.19;6252431;22;20035;-75
2023/08/06 02:19:05;;;;;;;9.68;7.95;;;;;;;14.61;100.00;100482.44;6280628;22;20038;-76
2023/08/06 02:21:32;;;;;;;8.88;8.05;;;;;;;14.59;100.00;100484.84;6279808;22;20044;-75
2023/08/06 02:23:58;;;;;;;8.20;7.50;;;;;;;14.59;100.00;100481.44;6253066;22;20099;-75
2023/08/06 02:26:25;;;;;;;10.90;8.55;;;;;;;14.60;100.00;100482.91;6251790;22;20468;-75
2023/08/06 02:28:51;;;;;;;8.98;8.13;;;;;;;14.59;100.00;100481.44;6252984;22;20027;-75
2023/08/06 02:31:18;;;;;;;9.68;8.15;;;;;;;14.59;100.00;100479.47;6280012;22;20023;-75
2023/08/06 02:33:45;;;;;;;10.40;9.40;;;;;;;14.56;100.00;100474.34;6252788;22;20381;-74
2023/08/06 02:36:11;;;;;;;10.20;9.18;;;;;;;14.56;100.00;100483.09;6253201;22;20465;-74
2023/08/06 02:38:38;;;;;;;9.55;8.63;;;;;;;14.57;100.00;100479.22;6279493;22;20394;-74
2023/08/06 02:41:05;;;;;;;9.02;8.23;;;;;;;14.59;100.00;100476.06;6279551;22;20018;-74
2023/08/06 02:43:31;;;;;;;11.77;9.20;;;;;;;14.60;100.00;100480.22;6251839;22;20027;-75
2023/08/06 02:45:59;;;;;;;9.23;8.27;;;;;;;14.59;100.00;100479.47;6252639;22;20016;-74
2023/08/06 02:48:26;;;;;;;9.85;8.60;;;;;;;14.59;100.00;100476.81;6279347;22;20013;-74
2023/08/06 02:50:57;;;;;;;11.18;9.13;;;;;;;14.59;100.00;100470.72;6252601;22;20074;-74
2023/08/06 02:53:23;;;;;;;11.57;9.13;;;;;;;14.58;100.00;100472.66;6278815;22;20012;-74
2023/08/06 02:55:50;;;;;;;9.55;8.68;;;;;;;14.59;100.00;100471.44;6279529;22;20020;-73
2023/08/06 02:58:22;;;;;;;;;;;;;;;14.59;100.00;100473.38;6252646;22;20091;-74
2023/08/06 03:01:05;;;;;;;9.13;8.00;;;;;;;14.55;100.00;100468.25;6252905;22;19919;-74
2023/08/06 03:03:40;;;;;;;9.95;7.75;;;;;;;14.55;100.00;100470.91;6252085;22;20020;-74
2023/08/06 03:06:07;;;;;;;8.65;7.78;;;;;;;14.57;100.00;100463.16;6252644;22;20377;-75
2023/08/06 03:08:45;;;;;;;9.65;8.65;;;;;;;14.59;100.00;100462.69;6252444;22;20019;-75
2023/08/06 03:11:12;;;;;;;8.10;7.30;;;;;;;14.61;100.00;100460.25;6252324;22;20016;-75
2023/08/06 03:13:40;;;;;;;10.38;7.85;;;;;;;14.62;100.00;100459.06;6251529;22;20012;-75
2023/08/06 03:16:07;;;;;;;8.13;7.43;;;;;;;14.62;100.00;100459.06;6253434;22;20028;-74
2023/08/06 03:18:33;;;;;;;8.73;7.93;;;;;;;14.60;100.00;100456.09;6253220;22;20112;-75
2023/08/06 03:21:03;;;;;;;9.48;7.40;;;;;;;14.59;100.00;100452.69;6253900;22;20026;-75
2023/08/06 03:23:30;;;;;;;8.20;7.45;;;;;;;14.59;100.00;100458.06;6253101;22;20016;-75
2023/08/06 03:26:06;;;;;;;8.60;7.55;;;;;;;14.62;100.00;100459.06;6253400;22;20020;-75
2023/08/06 03:28:33;;;;;;;8.15;7.38;;;;;;;14.60;100.00;100461.47;6280612;22;20016;-75
2023/08/06 03:31:02;;;;;;;9.80;6.75;;;;;;;14.60;100.00;100458.78;6281009;22;20095;-75
2023/08/06 03:33:35;;;;;;;10.32;6.78;;;;;;;14.56;100.00;100456.31;6253405;22;20031;-75
2023/08/06 03:36:04;;;;;;;7.32;6.72;;;;;;;14.56;100.00;100461.69;6281355;22;20024;-75
2023/08/06 03:38:33;;;;;;;7.35;6.75;;;;;;;14.57;100.00;100465.09;6253121;22;20023;-75
2023/08/06 03:41:02;;;;;;;9.32;7.18;;;;;;;14.57;100.00;100465.09;6253295;22;20485;-75
2023/08/06 03:43:29;;;;;;;7.68;6.97;;;;;;;14.57;100.00;100465.09;6253132;22;20454;-75
2023/08/06 03:45:56;;;;;;;7.40;6.78;;;;;;;14.55;100.00;100457.53;6253958;22;20074;-75
2023/08/06 03:48:23;;;;;;;8.98;7.53;;;;;;;14.56;100.00;100458.25;6253249;22;20025;-75
2023/08/06 03:50:49;;;;;;;8.43;7.55;;;;;;;14.55;100.00;100460.19;6228789;22;20107;-75
2023/08/06 03:53:17;;;;;;;8.25;7.55;;;;;;;14.54;100.00;100472.13;6248070;22;20021;-75
2023/08/06 03:55:44;;;;;;;8.77;8.02;;;;;;;14.54;100.00;100466.78;6248269;22;20029;-75
2023/08/06 03:58:10;;;;;;;8.35;7.63;;;;;;;14.54;100.00;100468.72;6248888;22;20461;-76
2023/08/06 04:00:37;;;;;;;9.60;8.63;;;;;;;14.52;100.00;100471.88;6249518;22;20504;-75
2023/08/06 04:03:04;;;;;;;9.10;8.30;;;;;;;14.55;100.00;100468.25;6248700;22;20516;-75
2023/08/06 04:05:32;;;;;;;8.80;7.90;;;;;;;14.54;100.00;100466.78;6222666;22;20185;-75
2023/08/06 04:07:59;;;;;;;9.85;8.85;;;;;;;14.54;100.00;100458.72;6250033;22;20469;-75
2023/08/06 04:10:26;;;;;;;10.00;8.85;;;;;;;14.54;100.00;100466.78;6250054;22;20012;-75
2023/08/06 04:12:53;;;;;;;9.27;8.38;;;;;;;14.55;100.00;100464.81;6250430;22;20017;-74
2023/08/06 04:15:19;;;;;;;10.95;8.60;;;;;;;14.55;100.00;100456.78;6247487;22;20025;-74
2023/08/06 04:17:46;;;;;;;9.80;8.80;;;;;;;14.55;100.00;100465.56;6222849;22;20021;-74
2023/08/06 04:20:13;;;;;;;9.60;8.73;;;;;;;14.57;100.00;100462.41;6248591;22;20023;-75
2023/08/06 04:22:39;;;;;;;9.57;8.68;;;;;;;14.56;100.00;100469.72;6247379;22;20461;-74
2023/08/06 04:25:06;;;;;;;9.75;8.82;;;;;;;14.57;100.00;100467.78;6250159;22;20092;-74
2023/08/06 04:27:36;;;;;;;12.57;9.48;;;;;;;14.58;100.00;100471.91;6222276;22;20016;-75
2023/08/06 04:30:04;;;;;;;10.57;9.48;;;;;;;14.58;100.00;100477.28;6248661;22;20040;-75
2023/08/06 04:32:34;;;;;;;11.20;9.75;;;;;;;14.57;100.00;100467.78;6248072;22;20017;-75
2023/08/06 04:35:01;;;;;;;10.23;9.15;;;;;;;14.55;100.00;100476.28;6250413;22;20108;-75
2023/08/06 04:37:27;;;;;;;10.52;9.52;;;;;;;14.55;100.00;100476.28;6247225;22;20752;-75
2023/08/06 04:39:54;;;;;;;11.40;9.70;;;;;;;14.57;100.00;100481.16;6248857;22;20017;-75
2023/08/06 04:42:22;;;;;;;13.70;10.02;;;;;;;14.58;100.00;100477.28;6247749;22;20024;-75
2023/08/06 04:44:49;;;;;;;11.05;9.93;;;;;;;14.57;100.00;100481.91;6250140;22;20021;-74
2023/08/06 04:47:16;;;;;;;11.52;10.15;;;;;;;14.57;100.00;100492.59;6248400;22;20100;-74
2023/08/06 04:49:44;;;;;;;11.23;10.13;;;;;;;14.58;100.00;100490.66;6248886;22;20477;-74
2023/08/06 04:52:10;;;;;;;11.88;10.27;;;;;;;14.60;100.00;100491.66;6260897;22;20018;-74
2023/08/06 04:54:37;;;;;;;11.52;9.98;;;;;;;14.62;100.00;100485.84;6279534;22;20078;-74
2023/08/06 04:57:04;;;;;;;12.40;10.52;;;;;;;14.64;100.00;100486.84;6281082;22;20698;-74
2023/08/06 04:59:30;;;;;;;11.93;10.73;;;;;;;14.66;100.00;100486.38;6280188;22;20035;-75
2023/08/06 05:01:57;;;;;;;12.40;11.20;;;;;;;14.67;100.00;100493.19;6280645;22;20008;-75
2023/08/06 05:04:23;;;;;;;16.77;10.70;;;;;;;14.68;100.00;100490.03;6280248;22;20016;-75
2023/08/06 05:06:50;;;;;;;15.20;11.10;;;;;;;14.69;100.00;100496.13;6280282;22;20067;-75
2023/08/06 05:09:16;;;;;;;12.90;11.63;;;;;;;14.70;100.00;100497.59;6280987;22;20019;-75
2023/08/06 05:11:43;;;;;;;18.33;11.15;;;;;;;14.71;100.00;100501.03;6280959;22;20015;-75
2023/08/06 05:14:09;;;;;;;12.27;11.10;;;;;;;14.72;100.00;100500.56;6281078;22;20453;-75
2023/08/06 05:16:36;;;;;;;14.27;10.93;;;;;;;14.72;100.00;100499.81;6280116;22;20047;-75
2023/08/06 05:19:03;;;;;;;12.93;11.45;;;;;;;14.71;100.00;100504.44;6281106;22;20019;-75
2023/08/06 05:21:29;;;;;;;12.02;10.65;;;;;;;14.71;100.00;100503.69;6279653;22;20012;-75
2023/08/06 05:23:56;;;;;;;14.60;11.85;;;;;;;14.72;100.00;100511.28;6281008;22;20544;-75
2023/08/06 05:26:22;;;;;;;12.57;11.30;;;;;;;14.72;100.00;100519.31;6280335;22;20022;-75
2023/08/06 05:28:49;;;;;;;13.52;12.00;;;;;;;14.74;100.00;100522.25;6280516;22;20047;-74
2023/08/06 05:31:16;;;;;;;13.57;12.18;;;;;;;14.74;100.00;100524.94;6280784;22;20111;-75
2023/08/06 05:33:42;;;;;;;13.13;11.82;;;;;;;14.73;100.00;100525.41;6280404;22;20020;-75
2023/08/06 05:36:09;;;;;;;16.92;13.32;;;;;;;14.75;100.00;100531.03;6280277;22;20020;-75
2023/08/06 05:38:35;;;;;;;15.20;12.57;;;;;;;14.73;100.00;100528.81;6279803;22;20015;-75
2023/08/06 05:41:02;;;;;;;14.43;12.98;;;;;;;14.73;100.00;100531.50;6281045;22;20102;-74
2023/08/06 05:43:29;;;;;;;14.57;13.02;;;;;;;14.74;100.00;100530.28;6252531;22;20031;-74
2023/08/06 05:45:56;;;;;;;16.77;13.77;;;;;;;14.74;100.00;100537.59;6280807;22;20158;-74
2023/08/06 05:48:24;;;;;;;15.30;12.75;;;;;;;14.74;100.00;100541.00;6280093;22;20012;-74
2023/08/06 05:50:52;;;;;;;15.18;13.57;;;;;;;14.75;100.00;100542.47;6280033;22;20012;-75
2023/08/06 05:53:19;;;;;;;15.73;12.73;;;;;;;14.75;100.00;100547.84;6279578;22;20059;-75
2023/08/06 05:55:45;;;;;;;14.43;12.90;;;;;;;14.75;100.00;100544.41;6253363;22;20020;-75
2023/08/06 05:58:12;;;;;;;14.27;12.65;;;;;;;14.73;100.00;100544.91;6280691;22;20013;-75
2023/08/06 06:00:38;;;;;;;13.82;12.50;;;;;;;14.75;100.00;100552.47;6279956;22;20012;-75
2023/08/06 06:03:05;;;;;;;13.73;12.32;;;;;;;14.74;100.00;100559.75;6280738;22;20059;-75
2023/08/06 06:05:31;;;;;;;15.32;13.02;;;;;;;14.75;100.00;100563.19;6251969;22;20442;-75
2023/08/06 06:07:58;;;;;;;15.93;12.55;;;;;;;14.74;100.00;100559.75;6280568;22;20442;-75
2023/08/06 06:10:24;;;;;;;13.77;12.43;;;;;;;14.75;100.00;100563.19;6279797;22;20051;-75
2023/08/06 06:12:51;;;;;;;13.60;12.32;;;;;;;14.75;100.00;100566.59;6280382;22;20016;-75
2023/08/06 06:15:18;;;;;;;13.95;12.35;;;;;;;14.74;100.00;100567.81;6252609;22;20449;-75
2023/08/06 06:17:44;;;;;;;14.68;12.98;;;;;;;14.74;100.00;100567.06;6280470;22;20047;-75
2023/08/06 06:20:11;;;;;;;14.52;12.43;;;;;;;14.77;100.00;100568.81;6252642;22;20019;-75
2023/08/06 06:22:38;;;;;;;13.60;12.27;;;;;;;14.78;100.00;100573.69;6279613;22;20027;-75
2023/08/06 06:25:05;;;;;;;14.35;12.20;;;;;;;14.78;100.00;100573.69;6280752;22;20012;-75
2023/08/06 06:27:31;;;;;;;15.93;13.82;;;;;;;14.81;100.00;100578.09;6252307;22;20019;-75
2023/08/06 06:29:58;;;;;;;14.32;12.82;;;;;;;14.85;100.00;100586.66;6280637;22;20016;-75
2023/08/06 06:32:25;;;;;;;14.10;12.35;;;;;;;14.87;100.00;100583.50;6252027;22;20366;-76
2023/08/06 06:34:52;;;;;;;20.10;12.40;;;;;;;14.89;100.00;100586.44;6279762;22;20402;-76
2023/08/06 06:37:18;;;;;;;15.25;13.15;;;;;;;14.90;100.00;100593.28;6252798;22;20314;-76
2023/08/06 06:39:45;;;;;;;14.07;11.85;;;;;;;14.92;100.00;100590.88;6280220;22;20096;-76
2023/08/06 06:42:11;;;;;;;13.52;12.15;;;;;;;14.93;100.00;100603.78;6280214;22;20020;-75
2023/08/06 06:44:43;;;;;;;13.48;12.15;;;;;;;14.93;100.00;100595.00;6279764;22;20032;-76
2023/08/06 06:47:09;;;;;;;14.35;11.90;;;;;;;14.93;100.00;100595.75;6280287;22;20023;-76
2023/08/06 06:49:36;;;;;;;21.13;13.05;;;;;;;14.96;100.00;100599.44;6279169;22;20012;-75
2023/08/06 06:52:03;;;;;;;13.70;12.38;;;;;;;14.97;100.00;100595.53;6281394;22;20369;-75
2023/08/06 06:54:30;;;;;;;13.75;12.35;;;;;;;14.97;100.00;100603.59;6280899;22;20031;-75
2023/08/06 06:56:56;;;;;;;13.20;11.90;;;;;;;14.97;100.00;100601.66;6281903;22;20020;-75
2023/08/06 06:59:23;;;;;;;13.55;11.93;;;;;;;14.98;100.00;100603.13;6281018;22;20434;-76
2023/08/06 07:01:50;;;;;;;13.55;11.40;;;;;;;14.99;100.00;100604.59;6281591;22;20016;-75
2023/08/06 07:04:17;;;;;;;14.68;12.02;;;;;;;15.00;100.00;100605.31;6281134;22;20430;-75
2023/08/06 07:06:44;;;;;;;12.93;10.50;;;;;;;15.01;100.00;100609.47;6281398;22;20012;-75
2023/08/06 07:09:10;;;;;;;13.77;11.10;;;;;;;15.00;100.00;100605.31;6254618;22;20436;-75
2023/08/06 07:11:37;;;;;;;12.13;10.93;;;;;;;15.01;100.00;100601.44;6280719;22;20021;-75
2023/08/06 07:14:03;;;;;;;12.90;11.57;;;;;;;15.04;100.00;100602.44;6281292;22;20016;-75
2023/08/06 07:16:30;;;;;;;14.75;11.48;;;;;;;15.05;100.00;100611.94;6279844;22;20103;-75
2023/08/06 07:18:56;;;;;;;12.15;10.95;;;;;;;15.03;100.00;100604.38;6281398;22;20018;-75
2023/08/06 07:21:23;;;;;;;18.15;12.20;;;;;;;15.02;100.00;100603.66;6228019;22;20127;-75
2023/08/06 07:23:50;;;;;;;12.40;11.10;;;;;;;15.04;100.00;100607.81;6281515;22;20012;-75
2023/08/06 07:26:17;;;;;;;13.55;10.98;;;;;;;15.05;100.00;100609.28;6254285;22;20505;-75
2023/08/06 07:28:44;;;;;;;12.75;11.55;;;;;;;15.09;100.00;100604.44;6281505;22;20024;-74
2023/08/06 07:31:11;;;;;;;12.95;11.68;;;;;;;15.14;100.00;100620.56;6280110;22;20830;-74
2023/08/06 07:33:38;;;;;;;13.70;12.00;;;;;;;15.17;100.00;100616.94;6280467;22;20023;-75
2023/08/06 07:36:14;;;;;;;14.05;11.30;;;;;;;15.23;100.00;100620.41;6281330;22;20023;-74
2023/08/06 07:38:41;;;;;;;14.50;12.55;;;;;;;15.27;100.00;100623.59;6280661;22;20079;-74
2023/08/06 07:41:08;;;;;;;13.27;12.07;;;;;;;15.28;100.00;100622.41;6281531;22;20026;-74
2023/08/06 07:43:38;;;;;;;14.05;11.35;;;;;;;15.29;100.00;100626.56;6280290;22;20012;-74
2023/08/06 07:46:04;;;;;;;12.52;11.25;;;;;;;15.31;100.00;100626.81;6280546;22;20478;-75
2023/08/06 07:48:31;;;;;;;12.80;11.60;;;;;;;15.32;100.00;100630.97;6280578;22;20099;-75
2023/08/06 07:50:58;;;;;;;12.35;11.05;;;;;;;15.31;100.00;100632.19;6281305;22;20052;-75
2023/08/06 07:53:29;;;;;;;12.82;11.63;;;;;;;15.34;100.00;100625.88;6253128;22;20016;-75
2023/08/06 07:55:56;;;;;;;13.38;11.98;;;;;;;15.33;100.00;100629.03;6281241;22;20020;-75
2023/08/06 07:58:25;;;;;;;11.75;9.13;;;;;;;15.30;100.00;100621.91;6280609;22;20445;-75
2023/08/06 08:00:51;;;;;;;7.28;6.63;;;;;;;15.23;100.00;100625.03;6280706;22;20027;-75
2023/08/06 08:03:19;;;;;;;5.22;4.82;;;;;;;15.17;100.00;100629.63;6280777;22;20527;-75
2023/08/06 08:05:46;;;;;;;4.63;4.32;;;;;;;15.07;100.00;100631.72;6253837;22;20090;-75
2023/08/06 08:08:13;;;;;;;4.65;4.35;;;;;;;15.00;100.00;100630.19;6281299;22;20012;-75
2023/08/06 08:10:40;;;;;;;2.47;2.38;;;;;;;14.95;100.00;100632.81;6227819;22;20424;-75
2023/08/06 08:13:06;;;;;;;3.70;2.17;;;;;;;14.87;100.00;100623.69;6253681;22;20020;-75
2023/08/06 08:15:34;;;;;;;2.42;2.15;;;;;;;14.81;100.00;100634.34;6279675;22;20393;-75
2023/08/06 08:18:00;;;;;;;2.20;2.10;;;;;;;14.74;100.00;100637.47;6281380;22;20497;-75
2023/08/06 08:20:35;;;;;;;1.92;1.83;;;;;;;14.67;100.00;100632.50;6280591;22;20087;-75
2023/08/06 08:23:02;;;;;;;1.63;1.60;;;;;;;14.65;100.00;100643.69;6281024;22;20051;-75
2023/08/06 08:25:28;;;;;;;2.33;2.10;;;;;;;14.64;100.00;100641.47;6280269;22;20016;-76
2023/08/06 08:27:57;;;;;;;2.22;2.13;;;;;;;14.62;100.00;100641.94;6280987;22;20016;-76
2023/08/06 08:30:24;;;;;;;1.83;1.73;;;;;;;14.61;100.00;100651.19;6280175;22;20008;-75
2023/08/06 08:32:52;;;;;;;2.10;2.00;;;;;;;14.59;100.00;100653.59;6281362;22;20023;-76
2023/08/06 08:35:18;;;;;;;1.80;1.70;;;;;;;14.58;100.00;100651.38;6280395;22;20087;-75
2023/08/06 08:37:45;;;;;;;1.65;1.55;;;;;;;14.57;100.00;100650.66;6281199;22;20012;-76
2023/08/06 08:40:14;;;;;;;1.67;1.58;;;;;;;14.59;100.00;100658.22;6281150;22;20075;-76
2023/08/06 08:42:40;;;;;;;2.10;1.83;;;;;;;14.56;100.00;100657.22;6280209;22;20023;-75
2023/08/06 08:45:13;;;;;;;1.58;1.50;;;;;;;14.53;100.00;100652.06;6280690;22;20502;-76
2023/08/06 08:47:46;;;;;;;9.52;1.98;;;;;;;14.51;100.00;100655.19;6280647;22;20132;-76
2023/08/06 08:50:14;;;;;;;1.90;1.80;;;;;;;14.51;100.00;100655.19;6254157;22;20468;-76
2023/08/06 08:52:41;;;;;;;1.90;1.80;;;;;;;14.52;100.00;100659.34;6252994;22;20036;-75
2023/08/06 08:55:08;;;;;;;1.50;1.50;;;;;;;14.47;100.00;100665.38;6280696;22;20044;-75
2023/08/06 08:57:35;;;;;;;1.83;1.73;;;;;;;14.52;100.00;100658.63;6280352;22;20052;-75
2023/08/06 09:00:03;;;;;;;1.65;1.60;;;;;;;14.55;100.00;100665.72;6280618;22;20453;-75
2023/08/06 09:02:32;;;;;;;3.88;2.10;;;;;;;14.55;100.00;100666.47;6280720;22;20473;-74
2023/08/06 09:05:04;;;;;;;1.77;1.67;;;;;;;14.57;100.00;100676.69;6281251;22;20378;-74
2023/08/06 09:07:38;;;;;;;2.13;2.03;;;;;;;14.59;100.00;100679.66;6278647;22;20023;-74
2023/08/06 09:10:10;;;;;;;2.30;1.88;;;;;;;14.61;100.00;100680.66;6279012;22;20405;-75
2023/08/06 09:12:37;;;;;;;2.10;2.00;;;;;;;14.64;100.00;100679.72;6277635;22;20040;-75
2023/08/06 09:15:04;;;;;;;2.58;2.38;;;;;;;14.63;100.00;100683.59;6279419;22;20016;-74
2023/08/06 09:17:31;;;;;;;2.05;1.95;;;;;;;14.66;100.00;100680.00;6278567;22;20016;-74
2023/08/06 09:19:57;;;;;;;2.28;2.08;;;;;;;14.66;100.00;100687.28;6279241;22;20020;-75
2023/08/06 09:22:24;;;;;;;3.53;2.13;;;;;;;14.68;100.00;100688.31;6279998;22;20418;-75
2023/08/06 09:24:51;;;;;;;2.67;2.10;;;;;;;14.66;100.00;100701.44;6280925;22;20012;-75
2023/08/06 09:27:18;;;;;;;2.60;2.40;;;;;;;14.65;100.00;100697.28;6280085;22;20469;-75
2023/08/06 09:29:45;;;;;;;3.50;2.63;;;;;;;14.65;100.00;100705.31;6281131;22;20446;-75
2023/08/06 09:32:13;;;;;;;2.95;2.65;;;;;;;14.65;100.00;100712.63;6281103;22;20012;-75
2023/08/06 09:34:42;;;;;;;2.40;2.30;;;;;;;14.65;100.00;100710.66;6280273;22;20415;-75
2023/08/06 09:37:10;;;;;;;2.83;2.63;;;;;;;14.67;100.00;100710.19;6280828;22;20016;-74
2023/08/06 09:39:40;;;;;;;7.28;2.50;;;;;;;14.70;100.00;100711.94;6252419;22;20048;-75
2023/08/06 09:42:06;;;;;;;2.72;2.55;;;;;;;14.68;100.00;100715.09;6280388;22;20012;-75
2023/08/06 09:44:34;;;;;;;3.05;2.85;;;;;;;14.67;100.00;100718.97;6280114;22;20016;-75
2023/08/06 09:47:02;;;;;;;2.95;2.80;;;;;;;14.64;100.00;100719.19;6280910;22;20404;-75
2023/08/06 09:49:32;;;;;;;2.80;2.60;;;;;;;14.62;100.00;100719.63;6280068;22;20024;-75
2023/08/06 09:52:00;;;;;;;3.10;2.90;;;;;;;14.62;100.00;100719.63;6280333;22;20016;-75
2023/08/06 09:54:28;;;;;;;3.15;2.83;;;;;;;14.65;100.00;100732.09;6280071;22;20012;-74
2023/08/06 09:56:56;;;;;;;3.70;3.30;;;;;;;14.66;100.00;100733.56;6279791;22;20028;-75
2023/08/06 09:59:24;;;;;;;3.90;3.28;;;;;;;14.70;100.00;100738.00;6279853;22;20023;-75
2023/08/06 10:01:51;;;;;;;4.03;3.50;;;;;;;14.76;100.00;100728.09;6280610;22;20016;-75
2023/08/06 10:04:20;;;;;;;4.20;3.47;;;;;;;14.77;100.00;100735.66;6253330;22;20066;-75
2023/08/06 10:06:50;;;;;;;3.53;3.25;;;;;;;14.83;100.00;100741.06;6281017;22;20540;-75
2023/08/06 10:09:18;;;;;;;3.80;3.28;;;;;;;14.80;100.00;100744.69;6280711;22;20048;-75
2023/08/06 10:11:52;;;;;;;3.72;3.45;;;;;;;14.79;100.00;100737.88;6280242;22;20019;-75
2023/08/06 10:14:26;;;;;;;4.05;3.55;;;;;;;14.78;100.00;100745.19;6279985;22;20016;-74
2023/08/06 10:16:54;;;;;;;4.90;3.47;;;;;;;14.82;100.00;100755.69;6280531;22;20044;-75
2023/08/06 10:19:21;;;;;;;3.97;3.70;;;;;;;14.86;100.00;100758.91;6279650;22;20028;-75
2023/08/06 10:22:10;;;;;;;3.83;3.53;;;;;;;14.92;100.00;100751.69;6280817;22;20036;-75
2023/08/06 10:24:56;;;;;;;4.50;4.10;;;;;;;14.92;100.00;100757.03;6280164;22;20517;-75
2023/08/06 10:27:33;;;;;;;5.40;3.65;;;;;;;14.93;100.00;100767.28;6281154;22;20470;-75
2023/08/06 10:30:28;;;;;;;5.35;3.78;;;;;;;14.95;100.00;100756.84;6281752;22;20460;-75
2023/08/06 10:33:02;;;;;;;3.80;3.50;;;;;;;15.04;100.00;100761.34;6281988;22;20016;-75
2023/08/06 10:35:43;;;;;;;4.25;3.78;;;;;;;15.14;100.00;100760.00;6253742;22;20020;-75
2023/08/06 10:38:16;;;;;;;5.40;3.75;;;;;;;15.19;100.00;100761.28;6281827;22;20029;-75
2023/08/06 10:40:51;;;;;;;3.72;3.45;;;;;;;15.25;100.00;100764.72;6253594;22;20047;-75
2023/08/06 10:43:29;;;;;;;5.65;3.70;;;;;;;15.26;100.00;100769.63;6281219;22;20545;-74
2023/08/06 10:45:57;;;;;;;3.60;3.30;;;;;;;15.20;100.00;100760.03;6281837;22;20016;-75
2023/08/06 10:48:37;;;;;;;4.65;3.40;;;;;;;15.23;100.00;100767.16;6281068;22;20052;-74
2023/08/06 10:51:07;;;;;;;3.42;3.22;;;;;;;15.19;100.00;100767.38;6281882;22;20023;-75
2023/08/06 10:53:34;;;;;;;3.65;2.92;;;;;;;15.21;100.00;100764.94;6253685;22;20016;-74
2023/08/06 10:56:02;;;;;;;3.10;2.90;;;;;;;15.28;100.00;100766.47;6280880;22;20036;-75
2023/08/06 10:58:33;;;;;;;3.35;3.13;;;;;;;15.33;100.00;100777.28;6253407;22;20060;-75
2023/08/06 11:01:00;;;;;;;3.25;3.05;;;;;;;15.41;100.00;100769.56;6281872;22;20020;-75
2023/08/06 11:03:27;;;;;;;3.15;2.83;;;;;;;15.42;100.00;100775.66;6280672;22;20079;-74
2023/08/06 11:05:54;;;;;;;3.00;2.25;;;;;;;15.43;100.00;100779.81;6281843;22;20019;-75
2023/08/06 11:08:28;;;;;;;6.75;2.53;;;;;;;15.47;100.00;100775.72;6280873;22;20016;-75
2023/08/06 11:11:08;;;;;;;4.65;2.28;;;;;;;15.50;100.00;100784.78;6281778;22;20087;-75
2023/08/06 11:13:34;;;;;;;2.70;2.50;;;;;;;15.47;100.00;100786.44;6281008;22;20139;-75
2023/08/06 11:16:01;;;;;;;2.75;2.38;;;;;;;15.46;100.00;100784.22;6281442;22;20012;-75